Time;durP1;ratioP1;P1;durP2;ratioP2;P2;SDS_P1;SDS_P2;PMS_P1;PMS_P2;Temp;Humidity;BMP_temperature;BMP_pressure;BME280_temperature;BME280_humidity;BME280_pressure;Samples;Min_cycle;Max_cycle;Signal;HPM_P1;HPM_P2
2023/10/15 00:00:13;;;;;;;0.10;0.10;;;7.70;89.50;;;;;;4776831;29;20448;-79
2023/10/15 00:02:42;;;;;;;0.77;0.28;;;7.80;89.60;;;;;;4791246;29;20070;-79
2023/10/15 00:05:12;;;;;;;0.43;0.20;;;7.90;89.60;;;;;;4806849;29;20046;-80
2023/10/15 00:07:38;;;;;;;0.98;0.32;;;7.90;89.60;;;;;;4791775;29;20039;-79
2023/10/15 00:10:10;;;;;;;0.55;0.30;;;7.90;89.60;;;;;;4822842;29;20490;-81
2023/10/15 00:12:37;;;;;;;0.40;0.28;;;7.90;89.60;;;;;;4806458;29;20030;-79
2023/10/15 00:15:07;;;;;;;0.10;0.10;;;7.80;89.70;;;;;;4789481;29;20039;-79
2023/10/15 00:17:34;;;;;;;0.30;0.17;;;7.90;89.80;;;;;;4806756;29;20482;-79
2023/10/15 00:19:59;;;;;;;0.30;0.30;;;8.00;89.80;;;;;;4822485;29;20066;-79
2023/10/15 00:22:26;;;;;;;0.52;0.38;;;8.00;89.80;;;;;;4791012;29;20074;-79
2023/10/15 00:24:51;;;;;;;0.20;0.20;;;8.00;89.80;;;;;;4806529;29;20046;-79
2023/10/15 00:27:19;;;;;;;0.20;0.20;;;8.00;89.80;;;;;;4806010;29;20046;-79
2023/10/15 00:29:45;;;;;;;0.13;0.13;;;8.00;89.90;;;;;;4806009;29;20076;-78
2023/10/15 00:32:12;;;;;;;0.20;0.20;;;8.00;89.90;;;;;;4806204;29;20898;-79
2023/10/15 00:34:38;;;;;;;0.15;0.15;;;8.00;90.00;;;;;;4822304;29;20486;-79
2023/10/15 00:37:05;;;;;;;0.20;0.20;;;8.00;90.00;;;;;;4805935;29;20050;-79
2023/10/15 00:39:31;;;;;;;0.32;0.30;;;8.00;90.00;;;;;;4822314;29;20042;-79
2023/10/15 00:41:56;;;;;;;0.40;0.30;;;8.10;90.00;;;;;;4806329;29;20047;-79
2023/10/15 00:44:22;;;;;;;0.40;0.20;;;8.10;90.00;;;;;;4805867;29;20045;-79
2023/10/15 00:46:54;;;;;;;0.20;0.20;;;8.00;90.00;;;;;;4791134;29;20482;-80
2023/10/15 00:49:25;;;;;;;1.05;0.10;;;8.00;90.00;;;;;;4792062;29;20039;-79
2023/10/15 00:51:51;;;;;;;0.38;0.20;;;8.00;90.00;;;;;;4789671;29;20058;-79
2023/10/15 00:54:18;;;;;;;0.20;0.20;;;7.90;90.00;;;;;;4790268;29;20030;-79
2023/10/15 00:56:47;;;;;;;0.20;0.20;;;8.10;90.10;;;;;;4822136;29;20142;-79
2023/10/15 00:59:17;;;;;;;0.45;0.30;;;7.90;90.10;;;;;;4820764;29;20057;-80
2023/10/15 01:04:30;;;;;;;0.25;0.20;;;7.90;90.10;;;;;;4807930;29;20035;-80
2023/10/15 01:07:00;;;;;;;0.40;0.15;;;7.90;90.10;;;;;;4824465;29;20427;-80
2023/10/15 01:09:29;;;;;;;0.10;0.10;;;8.00;90.20;;;;;;4808727;29;20079;-80
2023/10/15 01:11:56;;;;;;;0.10;0.10;;;8.00;90.20;;;;;;4809205;29;20500;-80
2023/10/15 01:14:44;;;;;;;0.20;0.20;;;8.00;90.20;;;;;;4777164;29;20043;-79
2023/10/15 01:17:09;;;;;;;0.25;0.20;;;8.00;90.20;;;;;;4811393;29;20521;-80
2023/10/15 01:19:35;;;;;;;0.40;0.28;;;8.00;90.20;;;;;;4808810;29;20042;-80
2023/10/15 01:22:02;;;;;;;0.68;0.30;;;8.10;90.30;;;;;;4809014;29;20051;-80
2023/10/15 01:24:33;;;;;;;0.10;0.10;;;8.00;90.20;;;;;;4793524;29;20027;-80
2023/10/15 01:27:03;;;;;;;0.20;0.13;;;8.00;90.30;;;;;;4808369;29;20042;-80
2023/10/15 01:29:33;;;;;;;0.10;0.10;;;8.10;90.30;;;;;;4824689;29;20033;-80
2023/10/15 01:32:02;;;;;;;0.30;0.20;;;8.00;90.30;;;;;;4809351;29;20038;-79
2023/10/15 01:34:29;;;;;;;0.38;0.20;;;8.00;90.40;;;;;;4808184;29;20041;-80
2023/10/15 01:36:59;;;;;;;0.10;0.10;;;8.00;90.40;;;;;;4793571;29;20046;-79
2023/10/15 01:39:40;;;;;;;0.30;0.10;;;8.00;90.40;;;;;;4824695;29;20125;-80
2023/10/15 01:42:06;;;;;;;0.25;0.10;;;8.00;90.40;;;;;;4808177;29;20419;-80
2023/10/15 01:44:33;;;;;;;0.20;0.20;;;8.00;90.40;;;;;;4823402;29;20117;-80
2023/10/15 01:49:35;;;;;;;0.15;0.15;;;8.00;90.40;;;;;;4810401;29;20126;-80
2023/10/15 01:52:12;;;;;;;0.10;0.10;;;8.00;90.40;;;;;;4824895;29;20125;-80
2023/10/15 01:54:44;;;;;;;0.10;0.10;;;8.00;90.40;;;;;;4794433;29;20043;-80
2023/10/15 01:57:15;;;;;;;0.50;0.10;;;8.00;90.40;;;;;;4808716;29;20042;-80
2023/10/15 01:59:49;;;;;;;0.10;0.10;;;8.00;90.50;;;;;;4793350;29;20459;-80
2023/10/15 02:02:23;;;;;;;0.13;0.10;;;8.00;90.50;;;;;;4794534;29;20625;-80
2023/10/15 02:04:50;;;;;;;0.47;0.30;;;8.00;90.50;;;;;;4807819;29;20540;-80
2023/10/15 02:07:19;;;;;;;0.20;0.20;;;8.00;90.50;;;;;;4793139;29;20035;-79
2023/10/15 02:09:45;;;;;;;0.13;0.13;;;8.00;90.50;;;;;;4793073;29;20087;-79
2023/10/15 02:12:18;;;;;;;0.20;0.15;;;8.00;90.50;;;;;;4824491;29;20047;-79
2023/10/15 02:14:44;;;;;;;0.63;0.20;;;8.00;90.50;;;;;;4824180;29;20069;-79
2023/10/15 02:17:15;;;;;;;0.52;0.20;;;8.00;90.50;;;;;;4807514;29;20050;-79
2023/10/15 02:19:43;;;;;;;0.20;0.20;;;8.10;90.60;;;;;;4808111;29;20095;-80
2023/10/15 02:22:12;;;;;;;0.10;0.10;;;8.20;90.60;;;;;;4807816;29;20463;-79
2023/10/15 02:24:46;;;;;;;0.10;0.10;;;8.00;90.50;;;;;;4824224;29;20049;-79
2023/10/15 02:27:22;;;;;;;0.17;0.17;;;8.00;90.50;;;;;;4784729;29;20486;-80
2023/10/15 02:29:49;;;;;;;0.20;0.20;;;8.10;90.60;;;;;;4808892;29;20095;-79
2023/10/15 02:32:28;;;;;;;0.10;0.10;;;8.10;90.50;;;;;;4779205;29;20043;-79
2023/10/15 02:34:57;;;;;;;0.45;0.20;;;8.10;90.60;;;;;;4794646;29;20095;-80
2023/10/15 02:37:27;;;;;;;0.47;0.30;;;8.10;90.60;;;;;;4823999;29;20050;-78
2023/10/15 02:39:57;;;;;;;0.10;0.10;;;8.10;90.50;;;;;;4823890;29;20042;-79
2023/10/15 02:42:30;;;;;;;0.20;0.20;;;8.10;90.60;;;;;;4792477;29;20034;-79
2023/10/15 02:44:58;;;;;;;0.10;0.10;;;8.10;90.60;;;;;;4793146;29;20090;-79
2023/10/15 02:47:40;;;;;;;0.10;0.10;;;8.10;90.60;;;;;;4824025;29;20038;-79
2023/10/15 02:50:07;;;;;;;0.47;0.10;;;8.10;90.60;;;;;;4824418;29;20039;-79
2023/10/15 02:52:42;;;;;;;0.38;0.20;;;8.10;90.60;;;;;;4807122;29;20057;-79
2023/10/15 02:55:10;;;;;;;0.10;0.10;;;8.10;90.60;;;;;;4793237;29;20047;-80
2023/10/15 02:57:38;;;;;;;0.10;0.10;;;8.10;90.60;;;;;;4807798;29;20351;-78
2023/10/15 03:02:47;;;;;;;0.30;0.20;;;8.00;90.60;;;;;;4820717;29;20106;-79
2023/10/15 03:05:14;;;;;;;0.10;0.10;;;8.10;90.70;;;;;;4807075;29;20035;-79
2023/10/15 03:07:43;;;;;;;0.10;0.10;;;8.00;90.70;;;;;;4806282;29;20038;-79
2023/10/15 03:10:12;;;;;;;0.10;0.10;;;7.90;90.70;;;;;;4806936;29;20038;-79
2023/10/15 03:12:43;;;;;;;0.10;0.10;;;8.00;90.80;;;;;;4805811;29;20038;-79
2023/10/15 03:15:14;;;;;;;0.17;0.15;;;8.00;91.00;;;;;;4791236;29;20037;-79
2023/10/15 03:17:40;;;;;;;0.00;0.00;;;8.00;90.80;;;;;;4776304;29;20122;-79
2023/10/15 03:22:51;;;;;;;0.10;0.10;;;8.00;90.80;;;;;;4808557;29;20107;-79
2023/10/15 03:25:18;;;;;;;0.10;0.10;;;8.00;90.80;;;;;;4807522;29;20394;-78
2023/10/15 03:27:47;;;;;;;0.38;0.10;;;8.00;90.80;;;;;;4791831;29;20398;-78
2023/10/15 03:30:13;;;;;;;0.10;0.10;;;8.00;90.80;;;;;;4806009;29;20084;-78
2023/10/15 03:32:44;;;;;;;0.10;0.10;;;8.00;90.80;;;;;;4791736;29;20043;-78
2023/10/15 03:35:18;;;;;;;0.65;0.10;;;8.00;90.80;;;;;;4807184;29;20485;-79
2023/10/15 03:37:45;;;;;;;0.10;0.10;;;8.00;90.80;;;;;;4807878;29;20118;-80
2023/10/15 03:40:29;;;;;;;0.10;0.10;;;8.00;90.80;;;;;;4822890;29;20046;-79
2023/10/15 03:43:01;;;;;;;0.10;0.10;;;8.00;90.80;;;;;;4782897;29;20474;-78
2023/10/15 03:45:28;;;;;;;0.10;0.10;;;8.00;90.80;;;;;;4792061;29;20039;-78
2023/10/15 03:47:54;;;;;;;0.10;0.10;;;7.90;90.80;;;;;;4805881;29;20158;-78
2023/10/15 03:50:20;;;;;;;0.10;0.10;;;7.90;90.80;;;;;;4822970;29;20121;-78
2023/10/15 03:52:46;;;;;;;0.10;0.10;;;7.90;90.90;;;;;;4823272;29;20054;-79
2023/10/15 03:55:12;;;;;;;0.10;0.10;;;8.00;90.90;;;;;;4806420;29;20038;-78
2023/10/15 03:57:37;;;;;;;0.10;0.10;;;7.90;90.90;;;;;;4806475;29;20043;-78
2023/10/15 04:03:25;;;;;;;0.10;0.10;;;8.00;90.90;;;;;;4809313;29;20046;-78
2023/10/15 04:05:35;;;;;;;0.20;0.10;;;8.10;90.90;;;;;;4809016;29;20137;-79
2023/10/15 04:08:01;;;;;;;0.17;0.17;;;7.90;90.80;;;;;;4806414;29;20130;-79
2023/10/15 04:10:33;;;;;;;0.20;0.20;;;8.00;90.80;;;;;;4806351;29;20486;-79
2023/10/15 04:13:00;;;;;;;0.80;0.10;;;8.00;90.80;;;;;;4823319;29;20046;-78
2023/10/15 04:15:26;;;;;;;1.15;0.20;;;7.90;90.80;;;;;;4806486;29;20110;-79
2023/10/15 04:17:52;;;;;;;0.68;0.25;;;7.90;90.80;;;;;;4806550;29;20058;-79
2023/10/15 04:20:27;;;;;;;0.22;0.17;;;8.00;90.80;;;;;;4791098;29;20042;-80
2023/10/15 04:22:53;;;;;;;0.25;0.25;;;7.90;90.70;;;;;;4808041;29;20046;-79
2023/10/15 04:25:25;;;;;;;0.28;0.28;;;7.90;90.70;;;;;;4806398;29;20494;-79
2023/10/15 04:27:53;;;;;;;0.10;0.10;;;7.80;90.70;;;;;;4806837;29;20527;-79
2023/10/15 04:30:20;;;;;;;0.15;0.15;;;7.80;90.80;;;;;;4806341;29;20042;-79
2023/10/15 04:32:47;;;;;;;0.20;0.20;;;7.80;90.80;;;;;;4791027;29;20053;-79
2023/10/15 04:35:18;;;;;;;0.10;0.10;;;7.80;90.80;;;;;;4806936;29;20658;-79
2023/10/15 04:37:45;;;;;;;;;;;7.80;90.90;;;;;;4806803;29;20057;-79
2023/10/15 04:40:13;;;;;;;0.15;0.15;;;7.80;90.80;;;;;;4807194;29;19912;-79
2023/10/15 04:42:48;;;;;;;0.10;0.10;;;7.80;90.80;;;;;;4809574;29;20048;-79
2023/10/15 04:47:59;;;;;;;0.10;0.10;;;7.70;90.90;;;;;;4825207;29;20402;-79
2023/10/15 04:50:35;;;;;;;0.10;0.10;;;7.70;91.00;;;;;;4794652;29;20050;-79
2023/10/15 04:55:43;;;;;;;0.10;0.10;;;7.70;91.00;;;;;;4809545;29;20129;-79
2023/10/15 04:58:10;;;;;;;0.10;0.10;;;7.70;91.10;;;;;;4809238;29;20382;-78
2023/10/15 05:00:44;;;;;;;0.10;0.10;;;7.70;91.10;;;;;;4825345;29;20058;-79
2023/10/15 05:03:10;;;;;;;0.10;0.10;;;7.70;91.10;;;;;;4809995;29;20042;-79
2023/10/15 05:05:37;;;;;;;0.30;0.10;;;7.70;91.10;;;;;;4825555;29;20527;-79
2023/10/15 05:08:10;;;;;;;0.20;0.20;;;7.60;91.00;;;;;;4794129;29;20042;-79
2023/10/15 05:10:38;;;;;;;0.10;0.10;;;7.70;91.10;;;;;;4794345;29;20450;-79
2023/10/15 05:13:04;;;;;;;0.13;0.13;;;7.60;91.10;;;;;;4793880;29;20045;-79
2023/10/15 05:15:30;;;;;;;0.32;0.10;;;7.60;91.10;;;;;;4793777;29;20179;-79
2023/10/15 05:17:56;;;;;;;0.52;0.10;;;7.60;91.10;;;;;;4809214;29;20137;-78
2023/10/15 05:20:22;;;;;;;0.10;0.10;;;7.60;91.10;;;;;;4793607;29;20046;-80
2023/10/15 05:22:48;;;;;;;0.30;0.20;;;7.60;91.10;;;;;;4777811;29;20398;-79
2023/10/15 05:25:17;;;;;;;0.13;0.10;;;7.50;91.10;;;;;;4793398;29;20171;-79
2023/10/15 05:27:44;;;;;;;0.20;0.20;;;7.50;91.10;;;;;;4825426;29;20050;-79
2023/10/15 05:30:11;;;;;;;0.20;0.20;;;7.50;91.10;;;;;;4825032;29;20537;-79
2023/10/15 05:32:37;;;;;;;0.10;0.10;;;7.50;91.10;;;;;;4808312;29;20045;-79
2023/10/15 05:35:08;;;;;;;0.70;0.13;;;7.50;91.10;;;;;;4793814;29;20038;-79
2023/10/15 05:37:36;;;;;;;0.10;0.10;;;7.40;91.10;;;;;;4809265;29;20039;-79
2023/10/15 05:40:03;;;;;;;0.10;0.10;;;7.40;91.10;;;;;;4825368;29;20042;-79
2023/10/15 05:42:30;;;;;;;0.10;0.10;;;7.30;91.10;;;;;;4808489;29;20450;-79
2023/10/15 05:44:56;;;;;;;0.10;0.10;;;7.30;91.10;;;;;;4793454;29;20375;-79
2023/10/15 05:47:22;;;;;;;0.10;0.10;;;7.40;91.20;;;;;;4808459;29;20063;-79
2023/10/15 05:49:48;;;;;;;0.10;0.10;;;7.40;91.20;;;;;;4793144;29;20042;-79
2023/10/15 05:52:14;;;;;;;0.10;0.10;;;7.40;91.20;;;;;;4792768;29;20081;-79
2023/10/15 05:54:40;;;;;;;0.20;0.20;;;7.30;91.20;;;;;;4793365;29;20482;-79
2023/10/15 05:57:06;;;;;;;0.10;0.10;;;7.30;91.20;;;;;;4807893;29;20878;-79
2023/10/15 05:59:35;;;;;;;1.02;0.20;;;7.30;91.30;;;;;;4808453;29;20046;-79
2023/10/15 06:02:02;;;;;;;0.10;0.10;;;7.40;91.30;;;;;;4809093;29;20063;-79
2023/10/15 06:04:28;;;;;;;0.10;0.10;;;7.30;91.20;;;;;;4793144;29;20133;-79
2023/10/15 06:06:55;;;;;;;0.10;0.10;;;7.30;91.20;;;;;;4793119;29;20383;-78
2023/10/15 06:09:20;;;;;;;0.10;0.10;;;7.30;91.20;;;;;;4808698;29;20053;-79
2023/10/15 06:11:46;;;;;;;0.80;0.10;;;7.30;91.20;;;;;;4793100;29;21398;-79
2023/10/15 06:14:13;;;;;;;0.20;0.20;;;7.20;91.20;;;;;;4807985;29;20175;-78
2023/10/15 06:16:39;;;;;;;0.10;0.10;;;7.20;91.20;;;;;;4824441;29;20043;-79
2023/10/15 06:19:05;;;;;;;0.10;0.10;;;7.20;91.20;;;;;;4785515;29;20041;-78
2023/10/15 06:21:32;;;;;;;0.10;0.10;;;7.30;91.20;;;;;;4792811;29;20061;-79
2023/10/15 06:23:58;;;;;;;0.10;0.10;;;7.20;91.20;;;;;;4808180;29;20123;-79
2023/10/15 06:26:24;;;;;;;0.10;0.10;;;7.20;91.20;;;;;;4824367;29;20975;-78
2023/10/15 06:28:50;;;;;;;0.10;0.10;;;7.10;91.20;;;;;;4808462;29;20126;-78
2023/10/15 06:31:16;;;;;;;0.10;0.10;;;7.10;91.20;;;;;;4792685;29;20211;-78
2023/10/15 06:33:42;;;;;;;0.25;0.10;;;7.10;91.20;;;;;;4807980;29;20042;-78
2023/10/15 06:36:08;;;;;;;0.30;0.20;;;7.20;91.30;;;;;;4808164;29;20038;-79
2023/10/15 06:38:33;;;;;;;0.20;0.20;;;7.10;91.20;;;;;;4823829;29;20046;-79
2023/10/15 06:41:00;;;;;;;0.10;0.10;;;7.10;91.20;;;;;;4823878;29;20133;-79
2023/10/15 06:43:28;;;;;;;0.15;0.15;;;7.10;91.20;;;;;;4807588;29;20567;-79
2023/10/15 06:45:54;;;;;;;0.20;0.20;;;7.10;91.20;;;;;;4806022;29;20034;-79
2023/10/15 06:48:23;;;;;;;0.13;0.13;;;7.20;91.10;;;;;;4792340;29;20038;-79
2023/10/15 06:50:49;;;;;;;0.10;0.10;;;7.20;91.10;;;;;;4792747;29;20117;-80
2023/10/15 06:53:15;;;;;;;0.10;0.10;;;7.30;91.10;;;;;;4807146;29;20070;-79
2023/10/15 06:55:45;;;;;;;0.10;0.10;;;7.30;91.10;;;;;;4807383;29;20073;-79
2023/10/15 06:58:12;;;;;;;0.10;0.10;;;7.40;91.30;;;;;;4823717;29;20049;-79
2023/10/15 07:00:38;;;;;;;0.17;0.17;;;7.40;91.00;;;;;;4807468;29;20053;-78
2023/10/15 07:03:04;;;;;;;0.10;0.10;;;7.40;90.90;;;;;;4807036;29;20034;-80
2023/10/15 07:05:30;;;;;;;0.52;0.20;;;7.50;90.90;;;;;;4806604;29;20034;-77
2023/10/15 07:07:57;;;;;;;0.57;0.20;;;7.50;90.90;;;;;;4792286;29;20031;-78
2023/10/15 07:10:23;;;;;;;0.20;0.20;;;7.50;90.90;;;;;;4807677;29;20043;-79
2023/10/15 07:12:50;;;;;;;0.57;0.40;;;7.60;90.90;;;;;;4807217;29;20137;-80
2023/10/15 07:15:17;;;;;;;0.52;0.20;;;7.60;90.90;;;;;;4792325;29;20367;-79
2023/10/15 07:17:44;;;;;;;0.20;0.20;;;7.70;90.90;;;;;;4805361;29;20046;-79
2023/10/15 07:20:14;;;;;;;0.17;0.17;;;7.60;90.80;;;;;;4806986;29;20053;-80
2023/10/15 07:22:43;;;;;;;0.30;0.10;;;7.60;90.80;;;;;;4806889;29;20065;-79
2023/10/15 07:25:10;;;;;;;0.20;0.20;;;7.70;90.90;;;;;;4791932;29;20038;-79
2023/10/15 07:27:37;;;;;;;0.25;0.20;;;7.80;90.90;;;;;;4807118;29;20037;-79
2023/10/15 07:30:06;;;;;;;0.68;0.25;;;7.80;90.80;;;;;;4806785;29;20031;-79
2023/10/15 07:32:36;;;;;;;0.35;0.20;;;8.00;90.90;;;;;;4777316;29;20035;-79
2023/10/15 07:35:01;;;;;;;0.10;0.10;;;8.00;90.80;;;;;;4806805;29;20042;-79
2023/10/15 07:37:28;;;;;;;0.20;0.20;;;8.00;90.70;;;;;;4806990;29;20099;-79
2023/10/15 07:39:54;;;;;;;0.25;0.20;;;8.10;90.60;;;;;;4807042;29;20106;-79
2023/10/15 07:42:19;;;;;;;0.20;0.20;;;8.10;90.60;;;;;;4806838;29;20058;-78
2023/10/15 07:44:45;;;;;;;0.45;0.20;;;8.10;90.60;;;;;;4823206;29;20035;-78
2023/10/15 07:47:11;;;;;;;0.25;0.20;;;8.10;90.70;;;;;;4823032;29;20394;-80
2023/10/15 07:49:36;;;;;;;0.17;0.17;;;8.10;90.70;;;;;;4806575;29;20042;-79
2023/10/15 07:52:03;;;;;;;0.10;0.10;;;8.10;90.70;;;;;;4806623;29;20061;-79
2023/10/15 07:54:30;;;;;;;0.38;0.20;;;8.10;90.70;;;;;;4823184;29;20054;-79
2023/10/15 07:56:56;;;;;;;0.15;0.15;;;8.00;90.70;;;;;;4791689;29;20509;-79
2023/10/15 07:59:21;;;;;;;0.77;0.20;;;8.10;90.80;;;;;;4806659;29;20043;-80
2023/10/15 08:01:47;;;;;;;0.43;0.30;;;8.10;90.80;;;;;;4822951;29;20486;-79
2023/10/15 08:04:13;;;;;;;0.10;0.10;;;8.10;90.80;;;;;;4823255;29;20117;-80
2023/10/15 08:06:40;;;;;;;1.45;0.30;;;8.10;90.80;;;;;;4823138;29;20041;-79
2023/10/15 08:09:05;;;;;;;0.63;0.28;;;8.10;90.80;;;;;;4792327;29;20096;-79
2023/10/15 08:11:31;;;;;;;0.10;0.10;;;8.10;90.80;;;;;;4790944;29;20486;-79
2023/10/15 08:13:59;;;;;;;0.20;0.20;;;8.20;90.80;;;;;;4822750;29;20076;-79
2023/10/15 08:16:25;;;;;;;0.40;0.20;;;8.20;90.80;;;;;;4776449;29;20105;-79
2023/10/15 08:18:50;;;;;;;0.17;0.10;;;8.20;90.80;;;;;;4791179;29;20050;-79
2023/10/15 08:21:16;;;;;;;0.30;0.20;;;8.30;90.80;;;;;;4806058;29;20494;-80
2023/10/15 08:23:42;;;;;;;0.35;0.20;;;8.40;90.80;;;;;;4806148;29;20046;-79
2023/10/15 08:26:09;;;;;;;0.20;0.13;;;8.40;90.80;;;;;;4806425;29;20034;-79
2023/10/15 08:28:34;;;;;;;0.20;0.20;;;8.40;90.80;;;;;;4823105;29;20089;-80
2023/10/15 08:31:00;;;;;;;0.10;0.10;;;8.40;90.70;;;;;;4806126;29;20494;-79
2023/10/15 08:33:26;;;;;;;0.30;0.10;;;8.50;90.90;;;;;;4806222;29;20039;-79
2023/10/15 08:35:52;;;;;;;0.75;0.30;;;8.50;90.80;;;;;;4791281;29;20053;-79
2023/10/15 08:38:18;;;;;;;0.10;0.10;;;8.50;90.80;;;;;;4791036;29;20051;-79
2023/10/15 08:40:45;;;;;;;0.15;0.15;;;8.50;90.80;;;;;;4790758;29;20069;-80
2023/10/15 08:43:29;;;;;;;1.38;0.20;;;8.50;90.80;;;;;;4791077;29;20034;-79
2023/10/15 08:45:58;;;;;;;0.10;0.10;;;8.50;90.80;;;;;;4791188;29;20050;-79
2023/10/15 08:48:25;;;;;;;0.22;0.22;;;8.50;90.80;;;;;;4806147;29;20070;-79
2023/10/15 08:50:54;;;;;;;0.35;0.20;;;8.50;90.90;;;;;;4789146;29;20035;-79
2023/10/15 08:53:22;;;;;;;0.20;0.13;;;8.50;90.90;;;;;;4784385;30;20055;-79
2023/10/15 08:55:49;;;;;;;0.38;0.22;;;8.50;90.80;;;;;;4754114;30;20048;-79
2023/10/15 08:58:15;;;;;;;0.10;0.10;;;8.60;90.80;;;;;;4784009;30;20091;-79
2023/10/15 09:00:43;;;;;;;0.10;0.10;;;8.60;90.80;;;;;;4769067;30;20077;-79
2023/10/15 09:03:13;;;;;;;0.10;0.10;;;8.60;90.80;;;;;;4769265;30;20043;-79
2023/10/15 09:05:41;;;;;;;0.15;0.15;;;8.70;90.80;;;;;;4740207;30;20085;-79
2023/10/15 09:08:07;;;;;;;0.35;0.10;;;8.70;90.70;;;;;;4783788;30;20100;-80
2023/10/15 09:10:41;;;;;;;0.20;0.17;;;8.70;90.60;;;;;;4769012;30;20050;-79
2023/10/15 09:13:15;;;;;;;0.20;0.10;;;8.70;90.70;;;;;;4769540;30;20624;-79
2023/10/15 09:15:52;;;;;;;0.10;0.10;;;8.70;90.70;;;;;;4784324;30;20051;-78
2023/10/15 09:18:18;;;;;;;0.10;0.10;;;8.70;90.80;;;;;;4767707;30;20054;-78
2023/10/15 09:20:46;;;;;;;0.20;0.20;;;8.70;90.80;;;;;;4769043;30;20051;-79
2023/10/15 09:23:12;;;;;;;0.20;0.20;;;8.70;90.80;;;;;;4755811;29;20122;-78
2023/10/15 09:25:41;;;;;;;0.10;0.10;;;8.80;90.80;;;;;;4822426;29;20043;-78
2023/10/15 09:28:07;;;;;;;0.15;0.15;;;8.80;90.70;;;;;;4807947;29;20494;-78
2023/10/15 09:30:32;;;;;;;0.15;0.15;;;8.80;90.60;;;;;;4789045;29;20074;-78
2023/10/15 09:32:59;;;;;;;0.55;0.28;;;8.90;90.60;;;;;;4768535;30;20399;-79
2023/10/15 09:35:25;;;;;;;0.82;0.20;;;9.00;90.60;;;;;;4754172;30;20495;-79
2023/10/15 09:37:53;;;;;;;0.22;0.20;;;9.00;90.50;;;;;;4751970;30;20089;-78
2023/10/15 09:40:20;;;;;;;0.10;0.10;;;9.00;90.40;;;;;;4767511;30;20058;-79
2023/10/15 09:42:49;;;;;;;0.38;0.20;;;9.10;90.40;;;;;;4752864;30;20067;-79
2023/10/15 09:45:18;;;;;;;0.22;0.22;;;9.10;90.40;;;;;;4752359;30;20044;-79
2023/10/15 09:47:48;;;;;;;0.28;0.25;;;9.10;90.40;;;;;;4738133;30;20371;-79
2023/10/15 09:50:25;;;;;;;0.45;0.20;;;9.30;90.40;;;;;;4737878;30;20163;-79
2023/10/15 09:55:32;;;;;;;0.10;0.10;;;9.30;90.30;;;;;;4754289;30;20055;-79
2023/10/15 09:58:01;;;;;;;0.15;0.10;;;9.40;90.20;;;;;;4753187;30;20028;-79
2023/10/15 10:00:47;;;;;;;0.30;0.15;;;9.50;90.20;;;;;;4751821;30;20064;-79
2023/10/15 10:03:36;;;;;;;0.22;0.20;;;9.50;90.00;;;;;;4766025;29;20054;-79
2023/10/15 10:06:26;;;;;;;1.27;0.28;;;9.50;90.00;;;;;;4778797;29;20099;-79
2023/10/15 10:09:28;;;;;;;0.22;0.22;;;9.60;90.00;;;;;;4794035;29;20138;-78
2023/10/15 10:12:05;;;;;;;;;;;9.60;90.00;;;;;;4812255;29;20058;-79
2023/10/15 10:15:08;;;;;;;0.20;0.20;;;9.60;89.90;;;;;;4825040;29;19909;-79
2023/10/15 10:17:34;;;;;;;0.30;0.20;;;9.50;89.80;;;;;;4778554;29;20083;-76
2023/10/15 10:20:11;;;;;;;0.20;0.20;;;9.50;89.90;;;;;;4824138;29;20038;-76
2023/10/15 10:22:39;;;;;;;0.32;0.20;;;9.50;89.90;;;;;;4808182;29;20066;-78
2023/10/15 10:25:07;;;;;;;0.20;0.20;;;9.60;90.00;;;;;;4808648;29;20113;-78
2023/10/15 10:27:47;;;;;;;0.28;0.25;;;9.50;90.00;;;;;;4805985;29;20042;-77
2023/10/15 10:30:28;;;;;;;0.60;0.22;;;9.50;90.00;;;;;;4824076;29;20103;-78
2023/10/15 10:32:57;;;;;;;0.43;0.10;;;9.60;90.20;;;;;;4807048;29;20811;-77
2023/10/15 10:35:24;;;;;;;0.20;0.20;;;9.60;89.90;;;;;;4791087;29;20038;-80
2023/10/15 10:38:10;;;;;;;0.35;0.15;;;9.50;89.90;;;;;;4807730;29;20042;-78
2023/10/15 10:40:52;;;;;;;0.57;0.10;;;9.50;90.00;;;;;;4806882;29;20117;-75
2023/10/15 10:43:21;;;;;;;0.38;0.10;;;9.50;90.00;;;;;;4807833;29;20126;-78
2023/10/15 10:45:56;;;;;;;0.40;0.20;;;9.60;89.90;;;;;;4808110;29;20038;-79
2023/10/15 10:48:25;;;;;;;0.20;0.20;;;9.70;89.70;;;;;;4806695;29;20129;-78
2023/10/15 10:51:11;;;;;;;1.10;0.20;;;9.60;89.70;;;;;;4792314;29;20042;-76
2023/10/15 10:53:39;;;;;;;0.10;0.10;;;9.60;89.70;;;;;;4776996;29;20483;-76
2023/10/15 10:56:07;;;;;;;0.10;0.10;;;9.70;89.80;;;;;;4807208;29;20038;-76
2023/10/15 10:58:36;;;;;;;0.17;0.15;;;9.60;89.80;;;;;;4808199;29;20046;-77
2023/10/15 11:01:06;;;;;;;0.52;0.20;;;9.60;89.90;;;;;;4789457;29;20502;-77
2023/10/15 11:03:32;;;;;;;0.10;0.10;;;9.60;90.20;;;;;;4823683;29;20050;-76
2023/10/15 11:05:59;;;;;;;0.10;0.10;;;9.60;89.90;;;;;;4792606;29;20126;-75
2023/10/15 11:08:24;;;;;;;1.20;0.30;;;9.60;89.90;;;;;;4808170;29;20039;-76
2023/10/15 11:10:50;;;;;;;1.02;0.35;;;9.70;89.90;;;;;;4807622;29;20134;-76
2023/10/15 11:13:17;;;;;;;0.35;0.20;;;9.70;89.80;;;;;;4792430;29;20038;-76
2023/10/15 11:15:44;;;;;;;0.60;0.17;;;9.70;89.60;;;;;;4823687;29;20130;-75
2023/10/15 11:18:10;;;;;;;0.20;0.20;;;9.80;89.40;;;;;;4823981;29;20034;-76
2023/10/15 11:20:36;;;;;;;0.10;0.10;;;9.90;89.20;;;;;;4807025;29;20497;-76
2023/10/15 11:23:06;;;;;;;0.28;0.20;;;10.00;89.00;;;;;;4791933;29;20042;-77
2023/10/15 11:25:34;;;;;;;0.20;0.20;;;10.10;88.70;;;;;;4805495;29;20038;-77
2023/10/15 11:28:07;;;;;;;1.98;0.32;;;10.10;88.40;;;;;;4780443;29;20051;-77
2023/10/15 11:30:33;;;;;;;0.35;0.17;;;10.30;88.40;;;;;;4769165;30;20134;-77
2023/10/15 11:33:00;;;;;;;1.27;0.38;;;10.50;88.20;;;;;;4740637;30;20097;-76
2023/10/15 11:35:33;;;;;;;0.28;0.28;;;10.50;87.90;;;;;;4767926;30;20499;-78
2023/10/15 11:38:07;;;;;;;0.50;0.30;;;10.60;87.70;;;;;;4737478;30;20043;-76
2023/10/15 11:40:37;;;;;;;0.22;0.22;;;10.60;87.50;;;;;;4767510;30;20047;-76
2023/10/15 11:43:17;;;;;;;0.30;0.20;;;10.70;87.30;;;;;;4770037;30;20043;-77
2023/10/15 11:45:43;;;;;;;0.40;0.28;;;10.80;87.10;;;;;;4784995;30;20039;-77
2023/10/15 11:48:12;;;;;;;0.55;0.20;;;10.80;87.00;;;;;;4755036;30;20046;-77
2023/10/15 11:50:41;;;;;;;0.20;0.20;;;10.90;86.90;;;;;;4784655;29;20063;-76
2023/10/15 11:53:20;;;;;;;0.38;0.35;;;10.90;86.70;;;;;;4738386;30;20048;-76
2023/10/15 11:55:47;;;;;;;0.22;0.20;;;11.00;86.70;;;;;;4754752;30;20055;-76
2023/10/15 11:58:16;;;;;;;0.47;0.30;;;11.00;86.50;;;;;;4770518;30;20114;-75
2023/10/15 12:00:42;;;;;;;0.50;0.30;;;11.00;86.50;;;;;;4791748;29;20075;-76
2023/10/15 12:03:09;;;;;;;0.30;0.25;;;11.10;86.60;;;;;;4806568;29;20050;-76
2023/10/15 12:05:37;;;;;;;0.52;0.30;;;11.10;86.60;;;;;;4823308;29;20047;-77
2023/10/15 12:08:04;;;;;;;0.95;0.30;;;11.10;86.70;;;;;;4822816;29;20034;-76
2023/10/15 12:10:31;;;;;;;0.30;0.20;;;11.10;86.70;;;;;;4806653;29;20106;-76
2023/10/15 12:12:58;;;;;;;0.52;0.20;;;11.10;86.50;;;;;;4791110;29;20042;-77
2023/10/15 12:15:25;;;;;;;0.25;0.20;;;11.20;86.70;;;;;;4806466;29;20034;-76
2023/10/15 12:17:51;;;;;;;1.65;0.20;;;11.20;86.60;;;;;;4806670;29;20084;-76
2023/10/15 12:20:17;;;;;;;1.90;0.30;;;11.20;86.30;;;;;;4806172;29;20070;-76
2023/10/15 12:22:43;;;;;;;0.65;0.20;;;11.30;86.20;;;;;;4805960;29;20098;-76
2023/10/15 12:25:10;;;;;;;1.15;0.40;;;11.20;85.90;;;;;;4806399;29;20167;-76
2023/10/15 12:27:37;;;;;;;0.30;0.30;;;11.20;86.00;;;;;;4806665;29;20042;-75
2023/10/15 12:30:06;;;;;;;0.45;0.30;;;11.20;85.80;;;;;;4806337;29;20141;-74
2023/10/15 12:32:31;;;;;;;1.67;0.38;;;11.20;86.00;;;;;;4807952;29;20070;-78
2023/10/15 12:35:24;;;;;;;0.40;0.20;;;11.10;86.10;;;;;;4808782;29;20051;-79
2023/10/15 12:37:58;;;;;;;1.35;0.30;;;11.20;86.20;;;;;;4797871;29;20042;-79
2023/10/15 12:40:31;;;;;;;0.80;0.35;;;11.30;86.10;;;;;;4813661;29;20045;-76
2023/10/15 12:42:59;;;;;;;0.20;0.20;;;11.20;86.00;;;;;;4820658;29;20047;-76
2023/10/15 12:45:25;;;;;;;0.98;0.38;;;11.20;86.00;;;;;;4794319;29;20070;-78
2023/10/15 12:47:54;;;;;;;0.70;0.35;;;11.20;86.10;;;;;;4811051;29;20043;-77
2023/10/15 12:50:19;;;;;;;0.10;0.10;;;11.20;85.90;;;;;;4798166;29;20047;-77
2023/10/15 12:52:49;;;;;;;0.32;0.20;;;11.30;86.00;;;;;;4755099;29;20051;-76
2023/10/15 12:55:15;;;;;;;0.73;0.30;;;11.30;85.90;;;;;;4754603;29;20639;-77
2023/10/15 12:57:41;;;;;;;0.55;0.20;;;11.40;85.80;;;;;;4739808;30;20387;-77
2023/10/15 13:00:16;;;;;;;0.32;0.10;;;11.50;85.70;;;;;;4754477;29;20672;-78
2023/10/15 13:02:43;;;;;;;0.90;0.20;;;11.50;85.50;;;;;;4772536;29;20077;-77
2023/10/15 13:06:11;;;;;;;1.20;0.30;;;11.60;85.60;;;;;;4752963;29;20065;-81
2023/10/15 13:15:49;;;;;;;1.45;0.20;;;11.90;84.80;;;;;;4704417;30;20076;-78
2023/10/15 13:18:17;;;;;;;0.20;0.17;;;11.80;84.60;;;;;;4708101;30;20493;-78
2023/10/15 13:20:43;;;;;;;0.90;0.28;;;11.90;84.60;;;;;;4703854;30;20061;-78
2023/10/15 13:23:08;;;;;;;0.20;0.20;;;11.90;84.50;;;;;;4707118;30;20530;-78
2023/10/15 13:25:34;;;;;;;0.63;0.20;;;12.00;84.60;;;;;;4711339;30;20041;-78
2023/10/15 13:28:00;;;;;;;0.65;0.30;;;11.90;84.50;;;;;;4711132;30;20057;-81
2023/10/15 13:31:05;;;;;;;1.00;0.45;;;11.90;84.50;;;;;;4705888;30;20030;-81
2023/10/15 13:33:36;;;;;;;0.30;0.30;;;11.70;84.40;;;;;;4683523;30;20055;-82